1PS4 weather

Sankey Airport
Osceola Mills, Pennsylvania, United States

Public forecast

Using degrees Fahrenheit for public forecast. Weather courtesy of forecast.io.

Closest aviation weather report (METAR) to Sankey Airport

Closest report is Clearfield Lawrence Airport, 13.3 nm (24.6 km) NNW. Retrieved 2019/12/16 11:54 UTC (38 minutes ago):

KFIG 161154Z AUTO 00000KT 10SM OVC042 M03/M05 A3015 RMK AO2 SNE48 SLP228 P0001 60001 70001 T10281050 11022 21033 53004

Closest aviation forecast (TAF) to Sankey Airport

Closest forecast is University Park Airport, 18.6 nm (34.5 km) E. Retrieved 2019/12/16 12:36 UTC (0 seconds ago):

TAF KUNV 161133Z 1612/1712 00000KT 6SM -SN OVC040 TEMPO 1612/1613 4SM -SN FM161600 10003KT P6SM BKN015 OVC040 FM170000 00000KT 4SM -SN OVC015 FM170200 00000KT 1 1/2SM -SN OVC007 FM170600 04002KT 3SM -FZRASN OVC003